Time;durP1;ratioP1;P1;durP2;ratioP2;P2;SDS_P1;SDS_P2;PMS_P1;PMS_P2;Temp;Humidity;BMP_temperature;BMP_pressure;BME280_temperature;BME280_humidity;BME280_pressure;Samples;Min_cycle;Max_cycle;Signal;HPM_P1;HPM_P2
2021/08/08 00:01:50;;;;;;;;;2.00;2.00;;;;;17.00;68.60;100614.31;5060415;28;45419;-73
2021/08/08 00:04:15;;;;;;;;;2.00;2.00;;;;;16.93;68.82;100608.91;5064865;28;45571;-69
2021/08/08 00:06:40;;;;;;;;;3.25;1.75;;;;;16.87;68.59;100612.38;5052752;28;45806;-71
2021/08/08 00:09:07;;;;;;;;;2.75;1.50;;;;;16.83;68.83;100610.28;5052716;27;45587;-74
2021/08/08 00:11:32;;;;;;;;;2.25;2.00;;;;;16.76;69.04;100608.34;5067378;28;45536;-72
2021/08/08 00:13:58;;;;;;;;;5.00;2.00;;;;;16.71;68.97;100612.59;5071829;27;45507;-70
2021/08/08 00:16:25;;;;;;;;;4.00;3.00;;;;;16.67;69.59;100622.84;5054308;28;47770;-74
2021/08/08 00:18:50;;;;;;;;;3.25;2.00;;;;;16.62;69.37;100622.59;5071486;27;45559;-71
2021/08/08 00:21:15;;;;;;;;;2.00;2.00;;;;;16.59;69.79;100625.63;5069238;27;45516;-71
2021/08/08 00:23:41;;;;;;;;;2.00;2.00;;;;;16.54;69.63;100625.38;5076410;27;45426;-74
2021/08/08 00:26:06;;;;;;;;;1.75;1.50;;;;;16.50;69.93;100630.28;5052748;28;48037;-70
2021/08/08 00:28:31;;;;;;;;;2.00;2.00;;;;;16.45;69.97;100624.69;5076226;27;45428;-69
2021/08/08 00:30:58;;;;;;;;;3.00;2.75;;;;;16.41;70.46;100627.94;5068512;27;45706;-74
2021/08/08 00:33:24;;;;;;;;;4.75;2.00;;;;;16.35;70.38;100624.19;5069565;27;45574;-74
2021/08/08 00:35:49;;;;;;;;;3.25;2.50;;;;;16.30;70.72;100629.25;5068162;27;46486;-74
2021/08/08 00:38:14;;;;;;;;;3.50;3.50;;;;;16.27;70.62;100632.28;5068167;27;45541;-73
2021/08/08 00:40:40;;;;;;;;;5.00;2.75;;;;;16.24;71.24;100640.66;5059705;28;45521;-73
2021/08/08 00:43:09;;;;;;;;;2.75;2.50;;;;;16.19;71.40;100640.41;5071867;27;45499;-74
2021/08/08 00:45:34;;;;;;;;;2.25;2.25;;;;;16.13;71.13;100632.16;5073945;27;46105;-74
2021/08/08 00:47:59;;;;;;;;;3.75;2.75;;;;;16.11;71.82;100630.69;5068205;27;45743;-75
2021/08/08 00:50:25;;;;;;;;;4.25;1.50;;;;;16.09;71.57;100630.03;5075800;27;45606;-71
2021/08/08 00:52:50;;;;;;;;;3.75;2.00;;;;;16.06;72.09;100625.09;5064958;28;45476;-74
2021/08/08 00:55:15;;;;;;;;;4.25;3.00;;;;;16.03;72.17;100623.63;5070603;28;46642;-72
2021/08/08 00:57:41;;;;;;;;;3.00;3.00;;;;;16.01;72.16;100627.50;5069668;27;45486;-74
2021/08/08 01:00:08;;;;;;;;;4.00;3.00;;;;;15.99;72.19;100634.84;5065289;28;45559;-70
2021/08/08 01:02:38;;;;;;;;;5.75;2.50;;;;;15.95;72.63;100630.91;5058989;28;45510;-69
2021/08/08 01:05:07;;;;;;;;;2.50;2.50;;;;;15.94;72.68;100631.91;5060353;28;45569;-71
2021/08/08 01:07:44;;;;;;;;;2.25;1.75;;;;;15.90;72.49;100634.16;5074476;27;45804;-74
2021/08/08 01:10:10;;;;;;;;;2.75;2.75;;;;;15.87;72.65;100622.03;5069857;28;45738;-72
2021/08/08 01:12:38;;;;;;;;;1.00;1.00;;;;;15.87;72.69;100631.84;5064752;27;45447;-74
2021/08/08 01:15:04;;;;;;;;;3.00;3.00;;;;;15.85;72.77;100640.03;5061696;28;45974;-71
2021/08/08 01:17:30;;;;;;;;;3.00;2.75;;;;;15.83;73.05;100639.38;5065317;28;45521;-70
2021/08/08 01:20:03;;;;;;;;;4.25;3.00;;;;;15.82;73.31;100634.22;5070967;28;45611;-74
2021/08/08 01:22:31;;;;;;;;;4.25;3.75;;;;;15.81;73.24;100643.25;5070183;28;45438;-70
2021/08/08 01:24:58;;;;;;;;;5.00;3.00;;;;;15.79;73.51;100639.94;5067966;27;45666;-71
2021/08/08 01:27:23;;;;;;;;;4.75;3.00;;;;;15.78;73.40;100638.31;5070678;27;45459;-72
2021/08/08 01:29:51;;;;;;;;;6.00;3.00;;;;;15.76;73.54;100637.66;5056289;28;45528;-74
2021/08/08 01:32:16;;;;;;;;;5.25;3.50;;;;;15.78;73.63;100646.28;5063822;28;45547;-69
2021/08/08 01:34:41;;;;;;;;;5.75;3.00;;;;;15.79;73.88;100646.09;5069885;28;46012;-74
2021/08/08 01:37:07;;;;;;;;;6.25;3.00;;;;;15.83;73.75;100649.22;5068537;28;45433;-71
2021/08/08 01:39:35;;;;;;;;;2.25;0.75;;;;;15.84;73.80;100646.34;5054291;28;45415;-70
2021/08/08 01:42:05;;;;;;;;;4.00;4.00;;;;;15.88;73.85;100650.31;5051445;27;45726;-72
2021/08/08 01:44:35;;;;;;;;;6.00;2.75;;;;;15.89;73.86;100657.28;5073777;27;45613;-74
2021/08/08 01:47:02;;;;;;;;;4.50;3.75;;;;;15.93;73.54;100643.59;5051409;27;45455;-74
2021/08/08 01:49:32;;;;;;;;;4.25;3.00;;;;;15.93;73.22;100652.44;5046782;28;45566;-69
2021/08/08 01:51:58;;;;;;;;;2.75;2.00;;;;;15.94;73.59;100656.72;5068008;27;45601;-71
2021/08/08 01:54:24;;;;;;;;;4.75;3.00;;;;;15.92;73.18;100650.75;5071069;27;45530;-71
2021/08/08 01:56:53;;;;;;;;;7.50;2.00;;;;;15.89;73.22;100651.13;5068344;27;45516;-73
2021/08/08 01:59:19;;;;;;;;;4.00;3.50;;;;;15.89;74.17;100648.47;5068658;27;45502;-71
2021/08/08 02:01:45;;;;;;;;;2.75;2.75;;;;;15.86;73.28;100651.50;5069357;27;45415;-73
2021/08/08 02:04:15;;;;;;;;;2.75;2.75;;;;;15.86;73.69;100647.00;5063846;28;45996;-74
2021/08/08 02:06:41;;;;;;;;;2.25;2.25;;;;;15.85;73.95;100649.84;5075672;27;45610;-69
2021/08/08 02:09:06;;;;;;;;;3.75;3.25;;;;;15.81;74.15;100653.91;5067864;27;45530;-72
2021/08/08 02:11:32;;;;;;;;;4.00;3.25;;;;;15.78;74.14;100659.63;5068700;27;45574;-75
2021/08/08 02:13:58;;;;;;;;;4.00;4.00;;;;;15.78;73.89;100659.63;5068678;27;46567;-74
2021/08/08 02:16:23;;;;;;;;;2.00;2.00;;;;;15.79;74.50;100659.41;5070768;28;45428;-74
2021/08/08 02:18:49;;;;;;;;;3.00;3.00;;;;;15.84;74.50;100658.88;5068976;28;45507;-72
2021/08/08 02:21:14;;;;;;;;;3.50;3.00;;;;;15.89;73.51;100661.78;5071641;27;45841;-72
2021/08/08 02:23:40;;;;;;;;;3.50;3.00;;;;;15.91;73.93;100657.94;5071321;27;47406;-71
2021/08/08 02:26:05;;;;;;;;;4.00;2.00;;;;;15.95;73.33;100665.53;5057857;28;46155;-74
2021/08/08 02:28:30;;;;;;;;;4.00;3.00;;;;;15.93;73.54;100664.94;5072669;28;45609;-74
2021/08/08 02:30:56;;;;;;;;;2.00;2.00;;;;;15.91;73.21;100665.09;5067876;27;45623;-74
2021/08/08 02:33:21;;;;;;;;;3.00;3.00;;;;;15.88;73.08;100660.97;5069669;27;46314;-74
2021/08/08 02:35:46;;;;;;;;;3.50;2.75;;;;;15.88;73.29;100673.47;5080758;27;45494;-74
2021/08/08 02:38:12;;;;;;;;;4.50;2.50;;;;;15.84;73.59;100669.53;5072487;27;45454;-74
2021/08/08 02:40:37;;;;;;;;;3.00;3.00;;;;;15.86;73.44;100678.16;5073906;28;45541;-72
2021/08/08 02:43:03;;;;;;;;;1.75;1.75;;;;;15.88;73.13;100678.81;5071091;27;46301;-73
2021/08/08 02:45:28;;;;;;;;;3.00;2.25;;;;;15.89;73.71;100680.44;5077341;27;45416;-69
2021/08/08 02:47:53;;;;;;;;;3.00;3.00;;;;;15.91;74.06;100681.09;5072776;27;45526;-74
2021/08/08 02:50:19;;;;;;;;;4.50;3.00;;;;;15.89;73.41;100693.78;5071129;28;45458;-71
2021/08/08 02:52:45;;;;;;;;;3.50;3.00;;;;;15.91;73.26;100689.91;5074613;28;45513;-74
2021/08/08 02:55:11;;;;;;;;;3.75;3.00;;;;;15.93;73.63;100681.75;5061302;28;45615;-72
2021/08/08 02:57:37;;;;;;;;;5.25;3.00;;;;;15.97;73.84;100685.66;5071231;27;51013;-72
2021/08/08 03:00:04;;;;;;;;;3.50;3.00;;;;;16.00;73.55;100693.31;5073726;27;45824;-74
2021/08/08 03:02:29;;;;;;;;;5.00;4.00;;;;;16.02;73.18;100688.63;5076308;27;45547;-71
2021/08/08 03:04:55;;;;;;;;;3.75;3.00;;;;;16.04;73.80;100689.25;5069735;27;45432;-74
2021/08/08 03:07:21;;;;;;;;;3.00;3.00;;;;;16.02;73.22;100695.78;5075314;27;45656;-74
2021/08/08 03:09:46;;;;;;;;;5.50;3.00;;;;;16.04;73.39;100688.44;5068923;27;45483;-74
2021/08/08 03:12:11;;;;;;;;;4.50;3.00;;;;;16.02;73.18;100687.78;5071214;27;46352;-72
2021/08/08 03:14:37;;;;;;;;;2.75;2.25;;;;;15.99;73.20;100686.31;5051786;27;47370;-74
2021/08/08 03:17:02;;;;;;;;;4.00;2.75;;;;;15.97;73.06;100695.50;5074672;27;45609;-74
2021/08/08 03:19:28;;;;;;;;;3.75;3.75;;;;;15.95;73.74;100693.06;5083594;27;45757;-75
2021/08/08 03:21:53;;;;;;;;;8.00;4.00;;;;;15.93;73.53;100699.59;5070020;27;46416;-74
2021/08/08 03:24:18;;;;;;;;;6.00;3.50;;;;;15.89;73.45;100694.59;5070559;27;45466;-74
2021/08/08 03:26:44;;;;;;;;;3.50;2.75;;;;;15.90;73.67;100701.59;5071077;27;45534;-75
2021/08/08 03:29:09;;;;;;;;;8.25;4.00;;;;;15.91;73.79;100702.41;5071882;27;45524;-75
2021/08/08 03:31:36;;;;;;;;;3.75;3.75;;;;;15.90;73.56;100706.09;5074341;27;46500;-74
2021/08/08 03:34:02;;;;;;;;;5.00;3.25;;;;;15.85;73.37;100705.81;5078359;27;45662;-72
2021/08/08 03:36:27;;;;;;;;;3.75;2.75;;;;;15.83;74.11;100706.00;5077763;27;45458;-71
2021/08/08 03:38:53;;;;;;;;;4.00;3.75;;;;;15.82;74.03;100704.34;5070101;27;45437;-74
2021/08/08 03:41:19;;;;;;;;;5.00;3.00;;;;;15.79;73.90;100704.72;5070373;27;46372;-71
2021/08/08 03:43:44;;;;;;;;;4.50;4.00;;;;;15.79;74.12;100704.72;5057196;27;45873;-74
2021/08/08 03:46:10;;;;;;;;;7.50;4.25;;;;;15.82;73.93;100703.53;5071907;27;45821;-74
2021/08/08 03:48:35;;;;;;;;;4.75;4.25;;;;;15.82;73.56;100709.66;5081299;27;45615;-73
2021/08/08 03:51:01;;;;;;;;;5.00;3.25;;;;;15.83;74.06;100713.19;5070454;27;46326;-72
2021/08/08 03:53:26;;;;;;;;;3.75;3.75;;;;;15.84;73.84;100712.97;5067343;27;45456;-72
2021/08/08 03:55:52;;;;;;;;;3.75;3.50;;;;;15.86;73.99;100715.47;5090730;27;45569;-75
2021/08/08 03:58:17;;;;;;;;;4.25;4.00;;;;;15.88;74.04;100718.78;5073127;27;45635;-74
2021/08/08 04:00:43;;;;;;;;;5.50;5.00;;;;;15.86;73.87;100715.47;5066817;27;46890;-74
2021/08/08 04:03:08;;;;;;;;;5.75;4.75;;;;;15.82;73.41;100708.84;5068451;27;45640;-73
2021/08/08 04:05:33;;;;;;;;;7.00;3.00;;;;;15.76;73.61;100704.28;5069226;27;45498;-74
2021/08/08 04:08:00;;;;;;;;;3.75;3.75;;;;;15.73;73.97;100705.47;5078295;27;45558;-72
2021/08/08 04:10:25;;;;;;;;;4.00;4.00;;;;;15.69;73.90;100710.31;5072128;27;45483;-75
2021/08/08 04:12:50;;;;;;;;;6.25;4.50;;;;;15.66;74.04;100710.66;5073978;27;45585;-69
2021/08/08 04:15:16;;;;;;;;;4.25;4.00;;;;;15.63;74.02;100716.34;5059686;28;45730;-75
2021/08/08 04:17:41;;;;;;;;;5.25;5.00;;;;;15.60;74.28;100713.22;5053027;27;45659;-71
2021/08/08 04:20:07;;;;;;;;;8.00;4.25;;;;;15.56;74.24;100715.44;5086377;27;51412;-69
2021/08/08 04:22:32;;;;;;;;;6.00;5.00;;;;;15.53;74.34;100722.94;5071738;27;45493;-75
2021/08/08 04:24:58;;;;;;;;;7.00;4.75;;;;;15.55;74.85;100721.75;5076351;27;45440;-74
2021/08/08 04:27:23;;;;;;;;;4.75;4.50;;;;;15.57;74.69;100729.56;5082818;27;45675;-71
2021/08/08 04:29:48;;;;;;;;;5.25;4.50;;;;;15.60;74.36;100739.84;5077891;27;45442;-74
2021/08/08 04:32:14;;;;;;;;;5.50;4.00;;;;;15.60;74.39;100743.38;5076554;27;45455;-74
2021/08/08 04:34:39;;;;;;;;;5.75;5.00;;;;;15.64;74.52;100736.66;5072116;27;45428;-75
2021/08/08 04:37:05;;;;;;;;;7.50;4.25;;;;;15.62;74.29;100740.50;5084911;27;45389;-71
2021/08/08 04:39:30;;;;;;;;;9.25;5.00;;;;;15.64;74.15;100747.31;5070347;27;46052;-71
2021/08/08 04:41:56;;;;;;;;;6.50;4.25;;;;;15.64;74.45;100749.97;5071315;27;45627;-75
2021/08/08 04:44:22;;;;;;;;;5.00;4.00;;;;;15.65;73.97;100743.66;5079828;27;45501;-74
2021/08/08 04:46:48;;;;;;;;;3.75;3.50;;;;;15.67;73.71;100749.59;5069036;27;45546;-72
2021/08/08 04:49:14;;;;;;;;;4.25;4.25;;;;;15.66;73.47;100747.97;5069277;27;47759;-69
2021/08/08 04:51:40;;;;;;;;;5.25;4.25;;;;;15.68;73.54;100756.59;5069376;27;45461;-71
2021/08/08 04:54:06;;;;;;;;;4.00;3.00;;;;;15.71;73.13;100743.97;5070420;27;45523;-75
2021/08/08 04:56:31;;;;;;;;;5.50;5.00;;;;;15.72;72.60;100745.59;5060255;27;45559;-72
2021/08/08 04:58:56;;;;;;;;;3.50;3.50;;;;;15.70;72.61;100745.78;5085047;27;46185;-72
2021/08/08 05:01:22;;;;;;;;;4.25;4.00;;;;;15.69;73.08;100752.94;5073137;27;45422;-72
2021/08/08 05:03:47;;;;;;;;;3.75;3.75;;;;;15.68;73.16;100751.28;5080282;27;45864;-71
2021/08/08 05:06:13;;;;;;;;;4.00;4.00;;;;;15.66;73.02;100750.63;5075668;27;45571;-75
2021/08/08 05:08:38;;;;;;;;;6.00;3.50;;;;;15.67;73.45;100754.94;5070562;27;45772;-74
2021/08/08 05:11:04;;;;;;;;;5.50;5.00;;;;;15.68;73.30;100755.78;5061718;28;45364;-71
2021/08/08 05:13:29;;;;;;;;;10.00;4.00;;;;;15.71;73.03;100750.13;5066730;28;45576;-71
2021/08/08 05:15:56;;;;;;;;;3.25;3.00;;;;;15.73;72.60;100757.94;5068782;28;45851;-74
2021/08/08 05:18:21;;;;;;;;;6.75;3.75;;;;;15.73;72.38;100755.28;5068453;28;45511;-72
2021/08/08 05:20:47;;;;;;;;;5.00;3.25;;;;;15.74;72.30;100759.56;5047211;28;45612;-72
2021/08/08 05:23:12;;;;;;;;;5.00;4.00;;;;;15.79;72.48;100762.50;5068922;27;45583;-70
2021/08/08 05:25:37;;;;;;;;;4.25;4.00;;;;;15.83;72.60;100758.50;5066954;27;45519;-74
2021/08/08 05:28:03;;;;;;;;;6.25;5.75;;;;;15.89;72.35;100753.22;5067145;27;46228;-74
2021/08/08 05:30:29;;;;;;;;;3.50;3.50;;;;;15.96;71.97;100757.84;5067118;27;45542;-74
2021/08/08 05:32:54;;;;;;;;;4.75;4.75;;;;;16.04;71.91;100760.41;5060853;28;45464;-73
2021/08/08 05:35:20;;;;;;;;;6.50;4.25;;;;;16.13;71.76;100760.13;5067455;27;45530;-74
2021/08/08 05:37:45;;;;;;;;;7.25;4.50;;;;;16.26;71.71;100755.97;5064174;27;46168;-72
2021/08/08 05:40:11;;;;;;;;;4.75;3.75;;;;;16.38;70.82;100754.50;5069142;28;45451;-69
2021/08/08 05:42:37;;;;;;;;;5.00;4.00;;;;;16.55;71.04;100758.59;5077239;27;45677;-74
2021/08/08 05:45:04;;;;;;;;;7.00;5.00;;;;;16.73;69.71;100757.34;5074282;27;45587;-74
2021/08/08 05:47:29;;;;;;;;;5.25;4.75;;;;;16.88;69.83;100760.81;5081029;27;45539;-72
2021/08/08 05:49:55;;;;;;;;;5.75;4.25;;;;;17.03;69.68;100765.28;5051025;28;45614;-71
2021/08/08 05:52:20;;;;;;;;;8.50;4.50;;;;;17.10;68.55;100766.16;5070596;28;45495;-74
2021/08/08 05:54:46;;;;;;;;;6.00;4.00;;;;;17.05;67.24;100763.25;5067431;28;45590;-74
2021/08/08 05:57:11;;;;;;;;;6.00;4.00;;;;;16.91;68.42;100763.13;5075069;27;45671;-71
2021/08/08 05:59:36;;;;;;;;;5.75;5.75;;;;;16.84;67.86;100766.72;5082388;27;45613;-74
2021/08/08 06:02:02;;;;;;;;;4.50;4.50;;;;;16.75;68.60;100761.47;5070116;27;45621;-73
2021/08/08 06:04:27;;;;;;;;;7.75;4.00;;;;;16.72;68.87;100774.38;5072426;27;45503;-75
2021/08/08 06:06:52;;;;;;;;;5.25;3.50;;;;;16.77;69.20;100782.66;5079253;27;46316;-75
2021/08/08 06:09:18;;;;;;;;;6.00;3.50;;;;;16.90;69.53;100782.00;5072373;27;45400;-75
2021/08/08 06:11:43;;;;;;;;;5.50;4.00;;;;;17.00;68.97;100781.69;5068723;27;45543;-74
2021/08/08 06:14:09;;;;;;;;;5.75;3.75;;;;;17.16;68.68;100781.41;5065122;27;45944;-74
2021/08/08 06:16:34;;;;;;;;;5.50;4.50;;;;;17.37;68.26;100788.59;5075171;27;45514;-72
2021/08/08 06:19:00;;;;;;;;;7.50;5.00;;;;;17.47;68.20;100793.63;5068031;27;45498;-74
2021/08/08 06:21:25;;;;;;;;;4.50;4.50;;;;;17.53;68.17;100792.81;5072148;28;45437;-69
2021/08/08 06:23:50;;;;;;;;;5.00;3.00;;;;;17.51;67.52;100792.22;5066435;27;45526;-73
2021/08/08 06:26:16;;;;;;;;;7.00;5.00;;;;;17.49;67.91;100802.25;5069034;27;45424;-70
2021/08/08 06:28:41;;;;;;;;;3.50;3.50;;;;;17.47;67.81;100801.63;5088418;27;45530;-71
2021/08/08 06:31:06;;;;;;;;;8.75;4.75;;;;;17.49;68.16;100796.91;5070265;27;45345;-75
2021/08/08 06:33:32;;;;;;;;;7.50;5.00;;;;;17.58;67.46;100803.75;5068376;27;46698;-71
2021/08/08 06:35:58;;;;;;;;;9.25;4.50;;;;;17.79;67.88;100798.38;5068575;27;45563;-75
2021/08/08 06:38:23;;;;;;;;;6.25;3.00;;;;;17.96;66.57;100798.94;5079917;27;45616;-71
2021/08/08 06:40:49;;;;;;;;;6.00;4.25;;;;;18.06;66.33;100798.59;5069272;27;45525;-74
2021/08/08 06:43:14;;;;;;;;;4.00;4.00;;;;;18.13;65.75;100806.66;5069579;27;45467;-73
2021/08/08 06:45:39;;;;;;;;;6.50;5.50;;;;;18.14;66.00;100803.75;5052861;28;47761;-75
2021/08/08 06:48:05;;;;;;;;;4.00;3.50;;;;;18.10;62.86;100809.69;5067475;27;45508;-74
2021/08/08 06:50:30;;;;;;;;;6.50;5.00;;;;;18.03;64.29;100805.16;5067126;27;45602;-69
2021/08/08 06:52:57;;;;;;;;;5.25;3.25;;;;;17.97;65.24;100811.25;5067188;27;45400;-74
2021/08/08 06:55:24;;;;;;;;;7.50;4.75;;;;;17.95;64.93;100807.13;5071223;28;46155;-71
2021/08/08 06:57:49;;;;;;;;;5.25;4.00;;;;;17.90;63.68;100810.41;5067493;27;45590;-74
2021/08/08 07:00:15;;;;;;;;;4.25;4.00;;;;;17.84;65.43;100805.84;5071277;27;45369;-72
2021/08/08 07:02:41;;;;;;;;;5.25;4.75;;;;;17.77;65.51;100815.63;5072831;27;45519;-72
2021/08/08 07:05:08;;;;;;;;;5.00;3.75;;;;;17.78;65.45;100826.13;5069201;27;47062;-73
2021/08/08 07:07:33;;;;;;;;;9.00;4.25;;;;;17.97;65.75;100835.34;5073694;27;45654;-71
2021/08/08 07:09:58;;;;;;;;;6.00;4.00;;;;;18.20;65.40;100832.41;5071421;27;45851;-74
2021/08/08 07:12:24;;;;;;;;;4.50;4.00;;;;;18.48;64.60;100829.66;5075246;27;45382;-74
2021/08/08 07:14:49;;;;;;;;;3.50;3.50;;;;;18.75;61.36;100820.94;5069504;28;46348;-69
2021/08/08 07:17:15;;;;;;;;;5.25;3.25;;;;;18.91;62.60;100828.59;5053252;28;45595;-68
2021/08/08 07:19:41;;;;;;;;;4.50;4.00;;;;;19.07;62.93;100819.41;5073453;28;45444;-69
2021/08/08 07:22:07;;;;;;;;;4.00;4.00;;;;;19.23;62.48;100820.84;5056089;27;45571;-72
2021/08/08 07:24:32;;;;;;;;;5.50;4.25;;;;;19.60;62.07;100818.59;5071770;27;46359;-71
2021/08/08 07:26:58;;;;;;;;;4.50;4.50;;;;;19.77;58.28;100819.88;5052886;28;45515;-74
2021/08/08 07:29:23;;;;;;;;;6.50;5.75;;;;;19.75;60.57;100819.25;5067664;28;45521;-75
2021/08/08 07:31:49;;;;;;;;;3.50;3.50;;;;;20.02;60.66;100821.91;5072605;27;45430;-71
2021/08/08 07:34:14;;;;;;;;;5.25;4.75;;;;;20.23;58.81;100821.66;5071014;28;46065;-73
2021/08/08 07:36:39;;;;;;;;;8.75;3.75;;;;;20.43;59.92;100832.31;5072392;27;45499;-69
2021/08/08 07:39:05;;;;;;;;;6.25;4.00;;;;;20.59;59.23;100829.16;5066014;28;45580;-72
2021/08/08 07:41:30;;;;;;;;;3.50;3.50;;;;;20.40;58.65;100833.56;5051988;28;45648;-72
2021/08/08 07:43:55;;;;;;;;;4.25;3.00;;;;;20.23;59.38;100840.44;5081595;27;46066;-72
2021/08/08 07:46:21;;;;;;;;;5.25;4.00;;;;;20.04;58.91;100838.63;5070055;27;45522;-71
2021/08/08 07:48:47;;;;;;;;;5.00;3.00;;;;;19.80;59.98;100840.91;5068053;27;45492;-72
2021/08/08 07:51:13;;;;;;;;;5.25;3.75;;;;;19.59;60.25;100851.81;5070942;27;45724;-73
2021/08/08 07:53:40;;;;;;;;;5.75;4.25;;;;;19.42;60.78;100849.53;5071618;27;45523;-74
2021/08/08 07:56:06;;;;;;;;;6.25;3.50;;;;;19.26;60.69;100853.44;5070490;28;45532;-73
2021/08/08 07:58:31;;;;;;;;;5.25;3.75;;;;;19.15;61.54;100862.06;5063413;28;45480;-74
2021/08/08 08:00:57;;;;;;;;;7.75;4.25;;;;;19.04;61.20;100868.84;5067064;27;45432;-73
2021/08/08 08:03:22;;;;;;;;;3.75;2.75;;;;;18.99;62.10;100871.31;5075647;27;46372;-69
2021/08/08 08:05:47;;;;;;;;;5.00;3.75;;;;;18.96;61.81;100877.03;5075708;27;45501;-74
2021/08/08 08:08:13;;;;;;;;;4.00;4.00;;;;;18.89;61.87;100870.81;5079130;27;47217;-74
2021/08/08 08:10:39;;;;;;;;;2.75;2.75;;;;;18.88;61.94;100877.22;5068442;28;45645;-74
2021/08/08 08:13:05;;;;;;;;;5.00;3.50;;;;;18.92;61.52;100878.47;5071043;27;45570;-71
2021/08/08 08:15:30;;;;;;;;;4.75;4.75;;;;;19.01;61.56;100871.06;5067207;27;45491;-74
2021/08/08 08:17:56;;;;;;;;;4.00;3.75;;;;;19.30;61.08;100862.69;5067923;28;45845;-74
2021/08/08 08:20:22;;;;;;;;;7.00;4.00;;;;;19.83;60.35;100875.38;5075792;27;45518;-74
2021/08/08 08:22:48;;;;;;;;;5.00;3.75;;;;;20.41;60.19;100878.16;5065939;27;46242;-75
2021/08/08 08:25:13;;;;;;;;;7.25;3.50;;;;;21.83;59.03;100871.81;5070945;27;45466;-75
2021/08/08 08:27:40;;;;;;;;;5.75;4.00;;;;;23.13;55.48;100871.66;5070243;27;45554;-72
2021/08/08 08:30:06;;;;;;;;;3.75;3.75;;;;;23.68;53.87;100870.59;5062908;28;45392;-71
2021/08/08 08:32:32;;;;;;;;;3.25;3.25;;;;;23.86;52.63;100875.09;5067746;28;46781;-72
2021/08/08 08:35:03;;;;;;;;;5.75;3.50;;;;;24.06;51.31;100890.97;5072737;27;45524;-74
2021/08/08 08:37:32;;;;;;;;;3.75;3.75;;;;;23.81;51.67;100891.16;5069230;28;45487;-71
2021/08/08 08:39:58;;;;;;;;;5.75;4.00;;;;;23.72;52.58;100892.56;5058597;27;45531;-72
2021/08/08 08:42:28;;;;;;;;;4.25;3.00;;;;;23.94;52.13;100890.16;5073921;27;45495;-72
2021/08/08 08:44:55;;;;;;;;;5.75;4.00;;;;;23.79;49.02;100886.03;5068849;27;45616;-74
2021/08/08 08:47:24;;;;;;;;;4.00;4.00;;;;;25.31;51.66;100894.09;5078898;27;45564;-74
2021/08/08 08:50:04;;;;;;;;;6.50;4.00;;;;;26.73;46.76;100893.81;5069838;27;45554;-71
2021/08/08 08:52:29;;;;;;;;;3.75;3.75;;;;;27.77;44.22;100900.00;5068540;27;45515;-75
2021/08/08 08:54:56;;;;;;;;;7.50;3.00;;;;;27.16;42.79;100897.53;5067592;27;45455;-72
2021/08/08 08:57:22;;;;;;;;;5.00;2.50;;;;;26.87;45.73;100905.09;5077970;27;56231;-72
2021/08/08 08:59:49;;;;;;;;;2.75;2.75;;;;;27.29;45.11;100891.72;5069829;28;45621;-71
2021/08/08 09:02:15;;;;;;;;;5.50;3.75;;;;;30.41;43.20;100897.41;5066799;27;46528;-74
2021/08/08 09:04:40;;;;;;;;;3.50;3.50;;;;;32.83;38.16;100888.88;5070655;28;45583;-72
2021/08/08 09:07:05;;;;;;;;;4.50;3.75;;;;;33.27;36.65;100898.66;5077208;27;45778;-72
2021/08/08 09:09:36;;;;;;;;;5.50;5.00;;;;;32.75;36.40;100899.38;5069154;27;46844;-74
2021/08/08 09:12:02;;;;;;;;;6.00;3.00;;;;;32.65;37.08;100898.72;5070102;27;46405;-70
2021/08/08 09:14:28;;;;;;;;;4.25;3.25;;;;;32.54;35.58;100898.84;5068722;27;45509;-73
2021/08/08 09:16:55;;;;;;;;;3.75;3.00;;;;;34.48;33.53;100903.09;5065426;27;45679;-74
2021/08/08 09:19:24;;;;;;;;;4.00;3.00;;;;;36.43;31.98;100903.84;5071282;27;45482;-68
2021/08/08 09:21:50;;;;;;;;;7.50;3.00;;;;;35.81;30.68;100912.97;5069119;27;45422;-71
2021/08/08 09:24:34;;;;;;;;;3.00;3.00;;;;;34.58;31.59;100912.22;5073387;27;45481;-70
2021/08/08 09:26:59;;;;;;;;;4.75;3.00;;;;;35.16;33.00;100921.69;5057382;27;45572;-74
2021/08/08 09:29:25;;;;;;;;;4.00;2.75;;;;;33.96;32.82;100932.59;5069549;27;45501;-71
2021/08/08 09:31:50;;;;;;;;;4.25;4.00;;;;;32.39;32.44;100940.00;5052265;28;46220;-74
2021/08/08 09:34:32;;;;;;;;;3.00;3.00;;;;;30.72;35.29;100932.75;5052698;28;45469;-75
2021/08/08 09:37:19;;;;;;;;;3.25;2.25;;;;;29.49;36.35;100930.19;5067686;27;45667;-72
2021/08/08 09:39:50;;;;;;;;;3.25;3.00;;;;;28.12;38.66;100936.69;5064630;27;45750;-74
2021/08/08 09:42:25;;;;;;;;;5.25;3.00;;;;;27.30;40.14;100935.94;5065542;27;45754;-74
2021/08/08 09:44:53;;;;;;;;;3.75;3.00;;;;;27.11;41.02;100938.19;5068014;27;45457;-71
2021/08/08 09:47:20;;;;;;;;;4.75;3.00;;;;;26.86;40.96;100936.00;5080883;27;45544;-73
2021/08/08 09:50:05;;;;;;;;;5.75;3.00;;;;;26.73;42.28;100932.59;5068865;27;45461;-74
2021/08/08 09:52:32;;;;;;;;;3.75;2.50;;;;;26.55;41.09;100938.31;5074268;27;46210;-71
2021/08/08 09:54:57;;;;;;;;;2.00;2.00;;;;;26.55;41.89;100935.59;5070109;27;45413;-74
2021/08/08 09:57:23;;;;;;;;;4.75;3.00;;;;;27.18;41.20;100936.94;5079859;27;45467;-68
2021/08/08 09:59:50;;;;;;;;;4.00;3.25;;;;;27.99;41.00;100933.34;5068164;27;45492;-71
2021/08/08 10:02:19;;;;;;;;;4.00;3.00;;;;;28.71;39.38;100936.50;5057283;28;47157;-72
2021/08/08 10:04:45;;;;;;;;;4.50;4.50;;;;;28.61;38.13;100920.13;5073605;27;45515;-74
2021/08/08 10:07:11;;;;;;;;;3.50;2.50;;;;;28.31;38.49;100940.59;5082230;27;45681;-71
2021/08/08 10:09:37;;;;;;;;;5.00;1.50;;;;;28.16;40.20;100951.38;5068399;27;45558;-74
2021/08/08 10:12:28;;;;;;;;;2.00;1.75;;;;;28.04;39.54;100946.97;5065717;27;46859;-74
2021/08/08 10:14:56;;;;;;;;;2.25;2.25;;;;;28.17;40.73;100945.69;5068408;27;45600;-74
2021/08/08 10:17:22;;;;;;;;;3.25;2.25;;;;;28.83;40.37;100926.22;5067357;28;45448;-74
2021/08/08 10:19:50;;;;;;;;;2.75;2.00;;;;;29.45;38.10;100946.25;5066388;28;45489;-72
2021/08/08 10:22:18;;;;;;;;;3.00;3.00;;;;;29.71;34.92;100933.50;5068068;28;46738;-71
2021/08/08 10:24:46;;;;;;;;;3.00;3.00;;;;;29.66;35.83;100935.41;5066521;27;45611;-73
2021/08/08 10:27:11;;;;;;;;;2.75;1.75;;;;;29.89;35.17;100939.47;5068047;27;45577;-69
2021/08/08 10:29:36;;;;;;;;;2.25;2.00;;;;;30.12;36.46;100941.63;5068277;27;45468;-69
2021/08/08 10:32:02;;;;;;;;;2.00;1.00;;;;;30.37;34.32;100938.06;5071439;27;45373;-69
2021/08/08 10:34:30;;;;;;;;;1.75;1.00;;;;;30.23;35.03;100943.22;5068659;27;45579;-74
2021/08/08 10:37:07;;;;;;;;;3.25;2.00;;;;;30.01;34.97;100951.72;5078804;27;45561;-74
2021/08/08 10:39:40;;;;;;;;;1.25;1.25;;;;;29.87;32.72;100939.75;5058512;27;45394;-72
2021/08/08 10:42:05;;;;;;;;;2.00;1.00;;;;;29.20;35.22;100936.13;5066594;27;45461;-74
2021/08/08 10:44:31;;;;;;;;;2.75;2.00;;;;;28.71;34.39;100942.75;5070271;27;45878;-72
2021/08/08 10:46:56;;;;;;;;;4.00;3.00;;;;;28.01;36.56;100957.50;5052564;27;45544;-74
2021/08/08 10:49:31;;;;;;;;;2.25;2.00;;;;;27.74;37.96;100950.19;5073500;27;45513;-71
2021/08/08 10:52:02;;;;;;;;;1.75;1.75;;;;;28.25;37.72;100949.81;5066579;27;47385;-73
2021/08/08 10:54:39;;;;;;;;;3.00;3.00;;;;;28.84;37.71;100949.59;5072838;27;45556;-72
2021/08/08 10:57:10;;;;;;;;;4.00;2.00;;;;;29.68;36.19;100941.41;5072155;27;45539;-71
2021/08/08 10:59:43;;;;;;;;;3.50;2.00;;;;;30.20;34.62;100949.25;5053503;28;45579;-74
2021/08/08 11:02:10;;;;;;;;;2.00;2.00;;;;;30.61;33.78;100938.25;5070095;27;46288;-69
2021/08/08 11:04:37;;;;;;;;;1.75;1.75;;;;;30.87;34.27;100951.81;5072936;27;45506;-71
2021/08/08 11:07:06;;;;;;;;;1.75;1.75;;;;;31.20;33.15;100941.25;5068704;27;45584;-70
2021/08/08 11:09:33;;;;;;;;;2.50;1.00;;;;;31.45;33.69;100938.41;5071941;27;45507;-75
2021/08/08 11:11:59;;;;;;;;;2.00;2.00;;;;;31.76;33.21;100934.59;5067956;27;46656;-75
2021/08/08 11:14:26;;;;;;;;;0.75;0.75;;;;;31.79;32.05;100932.09;5076468;27;45630;-75
2021/08/08 11:17:05;;;;;;;;;2.00;2.00;;;;;32.07;32.74;100938.72;5063461;27;45530;-71
2021/08/08 11:19:39;;;;;;;;;1.25;1.00;;;;;32.38;32.75;100935.66;5077879;27;45592;-74
2021/08/08 11:22:18;;;;;;;;;4.50;2.50;;;;;32.72;32.33;100932.81;5069706;27;45579;-74